Time;durP1;ratioP1;P1;durP2;ratioP2;P2;SDS_P1;SDS_P2;PMS_P1;PMS_P2;Temp;Humidity;BMP_temperature;BMP_pressure;BME280_temperature;BME280_humidity;BME280_pressure;Samples;Min_cycle;Max_cycle;Signal;HPM_P1;HPM_P2
2023/04/01 00:00:51;;;;;;;;;;;;;;;;;;1912447;28;7435;-63
2023/04/01 00:01:49;;;;;;;;;;;;;;;;;;1913044;28;7009;-62
2023/04/01 00:02:47;;;;;;;;;;;;;;;;;;1911263;28;8017;-64
2023/04/01 00:03:45;;;;;;;;;;;;;;;;;;1913161;28;7042;-63
2023/04/01 00:04:43;;;;;;;;;;;;;;;;;;1912688;28;8214;-65
2023/04/01 00:05:40;;;;;;;;;;;;;;;;;;1912909;28;7126;-63
2023/04/01 00:06:37;;;;;;;;;;;;;;;;;;1912302;28;7057;-64
2023/04/01 00:07:35;;;;;;;;;;;;;;;;;;1912543;28;8020;-62
2023/04/01 00:08:32;;;;;;;;;;;;;;;;;;1912165;28;7005;-64
2023/04/01 00:09:30;;;;;;;;;;;;;;;;;;1912290;28;7001;-62
2023/04/01 00:10:27;;;;;;;;;;;;;;;;;;1913085;28;7092;-64
2023/04/01 00:11:27;;;;;;;;;;;;;;;;;;1912619;28;7006;-64
2023/04/01 00:12:25;;;;;;;;;;;;;;;;;;1911572;28;8033;-64
2023/04/01 00:13:22;;;;;;;;;;;;;;;;;;1912568;28;7025;-63
2023/04/01 00:14:20;;;;;;;;;;;;;;;;;;1912753;28;7038;-63
2023/04/01 00:15:17;;;;;;;;;;;;;;;;;;1911254;28;7109;-63
2023/04/01 00:16:15;;;;;;;;;;;;;;;;;;1911414;28;8146;-64
2023/04/01 00:17:16;;;;;;;;;;;;;;;;;;1912978;28;7012;-64
2023/04/01 00:18:13;;;;;;;;;;;;;;;;;;1913162;28;7042;-63
2023/04/01 00:19:11;;;;;;;;;;;;;;;;;;1912888;28;7038;-64
2023/04/01 00:20:09;;;;;;;;;;;;;;;;;;1912559;28;7045;-65
2023/04/01 00:21:06;;;;;;;;;;;;;;;;;;1912842;28;7104;-64
2023/04/01 00:22:04;;;;;;;;;;;;;;;;;;1912116;28;7154;-65
2023/04/01 00:23:01;;;;;;;;;;;;;;;;;;1912369;28;8025;-64
2023/04/01 00:23:59;;;;;;;;;;;;;;;;;;1912655;28;7017;-64
2023/04/01 00:24:56;;;;;;;;;;;;;;;;;;1913239;28;7111;-62
2023/04/01 00:25:54;;;;;;;;;;;;;;;;;;1912262;28;7045;-64
2023/04/01 00:26:51;;;;;;;;;;;;;;;;;;1912612;28;7013;-64
2023/04/01 00:27:49;;;;;;;;;;;;;;;;;;1911443;28;7014;-64
2023/04/01 00:28:47;;;;;;;;;;;;;;;;;;1912737;28;7013;-63
2023/04/01 00:29:46;;;;;;;;;;;;;;;;;;1912675;28;7132;-64
2023/04/01 00:30:45;;;;;;;;;;;;;;;;;;1911466;28;7378;-63
2023/04/01 00:31:43;;;;;;;;;;;;;;;;;;1913169;28;7145;-64
2023/04/01 00:32:40;;;;;;;;;;;;;;;;;;1912907;28;7097;-63
2023/04/01 00:33:39;;;;;;;;;;;;;;;;;;1909564;28;7025;-64
2023/04/01 00:34:37;;;;;;;;;;;;;;;;;;1911277;28;8014;-64
2023/04/01 00:35:35;;;;;;;;;;;;;;;;;;1912109;28;7441;-63
2023/04/01 00:36:32;;;;;;;;;;;;;;;;;;1912334;28;7042;-64
2023/04/01 00:37:30;;;;;;;;;;;;;;;;;;1912462;28;7005;-63
2023/04/01 00:38:27;;;;;;;;;;;;;;;;;;1912654;28;7112;-63
2023/04/01 00:39:26;;;;;;;;;;;;;;;;;;1912574;28;8028;-64
2023/04/01 00:40:35;;;;;;;;;;;;;;;;;;1911962;28;7053;-64
2023/04/01 00:41:32;;;;;;;;;;;;;;;;;;1912536;28;7092;-64
2023/04/01 00:42:29;;;;;;;;;;;;;;;;;;1911179;28;8076;-65
2023/04/01 00:43:27;;;;;;;;;;;;;;;;;;1910868;28;7273;-64
2023/04/01 00:44:26;;;;;;;;;;;;;;;;;;1912448;28;7005;-63
2023/04/01 00:45:26;;;;;;;;;;;;;;;;;;1912204;28;7009;-64
2023/04/01 00:46:24;;;;;;;;;;;;;;;;;;1912287;28;7092;-64
2023/04/01 00:47:25;;;;;;;;;;;;;;;;;;1913155;28;8103;-63
2023/04/01 00:48:25;;;;;;;;;;;;;;;;;;1912340;28;7029;-63
2023/04/01 00:49:26;;;;;;;;;;;;;;;;;;1912327;28;7096;-63
2023/04/01 00:50:26;;;;;;;;;;;;;;;;;;1911860;28;7111;-63
2023/04/01 00:51:26;;;;;;;;;;;;;;;;;;1913337;28;7284;-64
2023/04/01 00:52:25;;;;;;;;;;;;;;;;;;1912811;28;7113;-64
2023/04/01 00:53:23;;;;;;;;;;;;;;;;;;1910812;28;8326;-65
2023/04/01 00:54:24;;;;;;;;;;;;;;;;;;1911088;28;7152;-63
2023/04/01 00:55:23;;;;;;;;;;;;;;;;;;1911968;28;7009;-64
2023/04/01 00:56:40;;;;;;;;;;;;;;;;;;1911857;28;7173;-63
2023/04/01 00:57:42;;;;;;;;;;;;;;;;;;1912599;28;7017;-63
2023/04/01 00:58:43;;;;;;;;;;;;;;;;;;1911763;28;8604;-64
2023/04/01 00:59:44;;;;;;;;;;;;;;;;;;1912710;28;7100;-64
2023/04/01 01:00:42;;;;;;;;;;;;;;;;;;1911960;28;7009;-62
2023/04/01 01:01:41;;;;;;;;;;;;;;;;;;1911218;28;7104;-63
2023/04/01 01:02:42;;;;;;;;;;;;;;;;;;1912148;28;7146;-63
2023/04/01 01:03:40;;;;;;;;;;;;;;;;;;1911610;28;7355;-63
2023/04/01 01:04:37;;;;;;;;;;;;;;;;;;1912335;28;8022;-63
2023/04/01 01:05:50;;;;;;;;;;;;;;;;;;1910766;28;7014;-64
2023/04/01 01:06:52;;;;;;;;;;;;;;;;;;1911608;28;8030;-64
2023/04/01 01:08:04;;;;;;;;;;;;;;;;;;1911995;28;7116;-64
2023/04/01 01:09:13;;;;;;;;;;;;;;;;;;1912038;28;8070;-62
2023/04/01 01:10:17;;;;;;;;;;;;;;;;;;1912325;28;7041;-63
2023/04/01 01:11:22;;;;;;;;;;;;;;;;;;1911975;28;7001;-64
2023/04/01 01:12:34;;;;;;;;;;;;;;;;;;1912056;28;8057;-64
2023/04/01 01:13:44;;;;;;;;;;;;;;;;;;1911842;28;7112;-64
2023/04/01 01:15:07;;;;;;;;;;;;;;;;;;1912118;28;7327;-63
2023/04/01 01:16:20;;;;;;;;;;;;;;;;;;1912179;28;7289;-63
2023/04/01 01:17:53;;;;;;;;;;;;;;;;;;1911819;28;8039;-63
2023/04/01 01:18:58;;;;;;;;;;;;;;;;;;1880872;28;7151;-64
2023/04/01 01:20:20;;;;;;;;;;;;;;;;;;1881195;28;7092;-64
2023/04/01 01:21:35;;;;;;;;;;;;;;;;;;1897185;28;7093;-64
2023/04/01 01:22:51;;;;;;;;;;;;;;;;;;1912163;28;7006;-65
2023/04/01 01:24:16;;;;;;;;;;;;;;;;;;1911409;28;7005;-63
2023/04/01 01:25:28;;;;;;;;;;;;;;;;;;1912152;28;7009;-64
2023/04/01 01:26:44;;;;;;;;;;;;;;;;;;1912255;28;7006;-64
2023/04/01 01:27:49;;;;;;;;;;;;;;;;;;1912244;28;7318;-64
2023/04/01 01:28:49;;;;;;;;;;;;;;;;;;1911922;28;7088;-62
2023/04/01 01:30:12;;;;;;;;;;;;;;;;;;1912003;28;7122;-63
2023/04/01 01:31:29;;;;;;;;;;;;;;;;;;1908481;28;7006;-63
2023/04/01 01:32:35;;;;;;;;;;;;;;;;;;1911624;28;7183;-63
2023/04/01 01:33:33;;;;;;;;;;;;;;;;;;1911922;28;7364;-63
2023/04/01 01:34:49;;;;;;;;;;;;;;;;;;1911773;28;7901;-63
2023/04/01 01:35:50;;;;;;;;;;;;;;;;;;1911423;28;8092;-64
2023/04/01 01:36:52;;;;;;;;;;;;;;;;;;1910699;28;8042;-63
2023/04/01 01:37:54;;;;;;;;;;;;;;;;;;1911712;28;7108;-64
2023/04/01 01:38:51;;;;;;;;;;;;;;;;;;1911462;28;7144;-63
2023/04/01 01:39:53;;;;;;;;;;;;;;;;;;1912671;28;7005;-63
2023/04/01 01:40:54;;;;;;;;;;;;;;;;;;1912081;28;7096;-63
2023/04/01 01:41:52;;;;;;;;;;;;;;;;;;1910937;28;7005;-63
2023/04/01 01:42:53;;;;;;;;;;;;;;;;;;1911824;28;8063;-63
2023/04/01 01:43:54;;;;;;;;;;;;;;;;;;1911972;28;7013;-64
2023/04/01 01:44:54;;;;;;;;;;;;;;;;;;1911917;28;7104;-64
2023/04/01 01:45:58;;;;;;;;;;;;;;;;;;1911687;28;7108;-63
2023/04/01 01:46:56;;;;;;;;;;;;;;;;;;1910801;28;7009;-64
2023/04/01 01:47:57;;;;;;;;;;;;;;;;;;1912508;28;7040;-63
2023/04/01 01:48:56;;;;;;;;;;;;;;;;;;1912255;28;7009;-63
2023/04/01 01:49:55;;;;;;;;;;;;;;;;;;1912265;28;7108;-64
2023/04/01 01:50:53;;;;;;;;;;;;;;;;;;1911825;28;7034;-63
2023/04/01 01:51:50;;;;;;;;;;;;;;;;;;1911969;28;7045;-64
2023/04/01 01:52:47;;;;;;;;;;;;;;;;;;1910647;28;7478;-63
2023/04/01 01:53:45;;;;;;;;;;;;;;;;;;1910727;28;8397;-64
2023/04/01 01:54:53;;;;;;;;;;;;;;;;;;1912025;28;7157;-63
2023/04/01 01:55:51;;;;;;;;;;;;;;;;;;1911996;28;7045;-64
2023/04/01 01:56:52;;;;;;;;;;;;;;;;;;1911487;28;8043;-64
2023/04/01 01:57:51;;;;;;;;;;;;;;;;;;1909640;28;7025;-63
2023/04/01 01:58:52;;;;;;;;;;;;;;;;;;1911129;28;7324;-64
2023/04/01 01:59:53;;;;;;;;;;;;;;;;;;1911521;28;7009;-63
2023/04/01 02:00:55;;;;;;;;;;;;;;;;;;1910701;28;7460;-63
2023/04/01 02:01:55;;;;;;;;;;;;;;;;;;1911753;28;7046;-64
2023/04/01 02:02:53;;;;;;;;;;;;;;;;;;1911741;28;7146;-62
2023/04/01 02:03:52;;;;;;;;;;;;;;;;;;1911433;28;8087;-63
2023/04/01 02:04:51;;;;;;;;;;;;;;;;;;1910720;28;7009;-64
2023/04/01 02:05:51;;;;;;;;;;;;;;;;;;1910940;28;7082;-63
2023/04/01 02:07:00;;;;;;;;;;;;;;;;;;1910598;28;7245;-62
2023/04/01 02:08:16;;;;;;;;;;;;;;;;;;1911241;28;7386;-63
2023/04/01 02:09:15;;;;;;;;;;;;;;;;;;1911836;28;7089;-63
2023/04/01 02:10:13;;;;;;;;;;;;;;;;;;1911481;28;7010;-62
2023/04/01 02:11:13;;;;;;;;;;;;;;;;;;1911712;28;7371;-62
2023/04/01 02:12:14;;;;;;;;;;;;;;;;;;1912220;28;7092;-64
2023/04/01 02:13:21;;;;;;;;;;;;;;;;;;1911842;28;7009;-63
2023/04/01 02:14:18;;;;;;;;;;;;;;;;;;1911378;28;7134;-64
2023/04/01 02:15:19;;;;;;;;;;;;;;;;;;1912357;28;7137;-63
2023/04/01 02:16:21;;;;;;;;;;;;;;;;;;1911815;28;7196;-63
2023/04/01 02:17:20;;;;;;;;;;;;;;;;;;1911340;28;7096;-62
2023/04/01 02:18:19;;;;;;;;;;;;;;;;;;1911349;28;7050;-64
2023/04/01 02:19:22;;;;;;;;;;;;;;;;;;1911365;28;7013;-64
2023/04/01 02:20:22;;;;;;;;;;;;;;;;;;1911742;28;7054;-64
2023/04/01 02:21:22;;;;;;;;;;;;;;;;;;1911362;28;7117;-63
2023/04/01 02:22:24;;;;;;;;;;;;;;;;;;1911693;28;7132;-64
2023/04/01 02:23:21;;;;;;;;;;;;;;;;;;1912338;28;7005;-64
2023/04/01 02:24:22;;;;;;;;;;;;;;;;;;1911505;28;7096;-63
2023/04/01 02:25:26;;;;;;;;;;;;;;;;;;1911889;28;7029;-63
2023/04/01 02:26:26;;;;;;;;;;;;;;;;;;1911161;28;7387;-63
2023/04/01 02:27:24;;;;;;;;;;;;;;;;;;1910000;28;7204;-64
2023/04/01 02:28:24;;;;;;;;;;;;;;;;;;1910122;28;7026;-62
2023/04/01 02:29:24;;;;;;;;;;;;;;;;;;1910404;28;9009;-62
2023/04/01 02:30:23;;;;;;;;;;;;;;;;;;1911746;28;7078;-64
2023/04/01 02:31:23;;;;;;;;;;;;;;;;;;1911559;28;7980;-63
2023/04/01 02:32:20;;;;;;;;;;;;;;;;;;1911732;28;7089;-64
2023/04/01 02:33:19;;;;;;;;;;;;;;;;;;1911447;28;7002;-62
2023/04/01 02:34:16;;;;;;;;;;;;;;;;;;1911317;28;7006;-64
2023/04/01 02:35:15;;;;;;;;;;;;;;;;;;1911198;28;7301;-63
2023/04/01 02:36:14;;;;;;;;;;;;;;;;;;1911417;28;7267;-63
2023/04/01 02:37:12;;;;;;;;;;;;;;;;;;1911981;28;7001;-64
2023/04/01 02:38:10;;;;;;;;;;;;;;;;;;1911349;28;7247;-63
2023/04/01 02:39:08;;;;;;;;;;;;;;;;;;1911395;28;7010;-62
2023/04/01 02:40:07;;;;;;;;;;;;;;;;;;1912029;28;7077;-64
2023/04/01 02:41:05;;;;;;;;;;;;;;;;;;1910188;28;8145;-64
2023/04/01 02:42:03;;;;;;;;;;;;;;;;;;1911486;28;7084;-64
2023/04/01 02:43:00;;;;;;;;;;;;;;;;;;1912100;28;8961;-63
2023/04/01 02:43:59;;;;;;;;;;;;;;;;;;1911804;28;7050;-68
2023/04/01 02:44:56;;;;;;;;;;;;;;;;;;1910262;28;7038;-64
2023/04/01 02:45:54;;;;;;;;;;;;;;;;;;1911877;28;7388;-63
2023/04/01 02:46:52;;;;;;;;;;;;;;;;;;1911646;28;7054;-64
2023/04/01 02:47:50;;;;;;;;;;;;;;;;;;1911396;28;8024;-64
2023/04/01 02:48:47;;;;;;;;;;;;;;;;;;1911300;28;7006;-63
2023/04/01 02:49:45;;;;;;;;;;;;;;;;;;1911078;28;8042;-63
2023/04/01 02:50:42;;;;;;;;;;;;;;;;;;1911917;28;7089;-62
2023/04/01 02:51:39;;;;;;;;;;;;;;;;;;1910993;28;7380;-64
2023/04/01 02:52:37;;;;;;;;;;;;;;;;;;1910197;28;7128;-64
2023/04/01 02:53:34;;;;;;;;;;;;;;;;;;1911877;28;7155;-65
2023/04/01 02:54:32;;;;;;;;;;;;;;;;;;1910426;28;8029;-62
2023/04/01 02:55:30;;;;;;;;;;;;;;;;;;1911447;28;7006;-65
2023/04/01 02:56:28;;;;;;;;;;;;;;;;;;1911168;28;7100;-63
2023/04/01 02:57:25;;;;;;;;;;;;;;;;;;1910904;28;7092;-63
2023/04/01 02:58:23;;;;;;;;;;;;;;;;;;1911571;28;8102;-65
2023/04/01 02:59:20;;;;;;;;;;;;;;;;;;1911464;28;8050;-64
2023/04/01 03:00:17;;;;;;;;;;;;;;;;;;1910607;28;7096;-64
2023/04/01 03:01:15;;;;;;;;;;;;;;;;;;1910065;28;7041;-64
2023/04/01 03:02:13;;;;;;;;;;;;;;;;;;1911364;28;8057;-63
2023/04/01 03:03:10;;;;;;;;;;;;;;;;;;1910909;28;7033;-62
2023/04/01 03:04:08;;;;;;;;;;;;;;;;;;1910164;28;8023;-64
2023/04/01 03:05:05;;;;;;;;;;;;;;;;;;1911370;28;7033;-62
2023/04/01 03:06:06;;;;;;;;;;;;;;;;;;1909636;28;8028;-64
2023/04/01 03:07:04;;;;;;;;;;;;;;;;;;1910650;28;7145;-64
2023/04/01 03:08:02;;;;;;;;;;;;;;;;;;1912942;28;7009;-62
2023/04/01 03:08:59;;;;;;;;;;;;;;;;;;1913287;28;7009;-63
2023/04/01 03:09:57;;;;;;;;;;;;;;;;;;1912769;28;7038;-62
2023/04/01 03:10:54;;;;;;;;;;;;;;;;;;1913182;28;7154;-62
2023/04/01 03:11:52;;;;;;;;;;;;;;;;;;1912023;28;7013;-64
2023/04/01 03:12:49;;;;;;;;;;;;;;;;;;1912464;28;7132;-62
2023/04/01 03:13:47;;;;;;;;;;;;;;;;;;1913607;28;7009;-64
2023/04/01 03:14:44;;;;;;;;;;;;;;;;;;1913847;28;7130;-62
2023/04/01 03:15:41;;;;;;;;;;;;;;;;;;1913445;28;7029;-64
2023/04/01 03:16:39;;;;;;;;;;;;;;;;;;1912678;28;8027;-63
2023/04/01 03:17:36;;;;;;;;;;;;;;;;;;1912810;28;7138;-63
2023/04/01 03:18:34;;;;;;;;;;;;;;;;;;1910919;28;7013;-63
2023/04/01 03:19:31;;;;;;;;;;;;;;;;;;1913106;28;8003;-64
2023/04/01 03:20:29;;;;;;;;;;;;;;;;;;1912589;28;7009;-63
2023/04/01 03:21:26;;;;;;;;;;;;;;;;;;1913490;28;7096;-63
2023/04/01 03:22:23;;;;;;;;;;;;;;;;;;1912567;28;7328;-65
2023/04/01 03:23:21;;;;;;;;;;;;;;;;;;1912682;28;7005;-63
2023/04/01 03:24:19;;;;;;;;;;;;;;;;;;1912816;28;7989;-64
2023/04/01 03:25:17;;;;;;;;;;;;;;;;;;1913363;28;7009;-63
2023/04/01 03:26:14;;;;;;;;;;;;;;;;;;1912605;28;8024;-63
2023/04/01 03:27:12;;;;;;;;;;;;;;;;;;1912911;28;7005;-64
2023/04/01 03:28:10;;;;;;;;;;;;;;;;;;1913218;28;7006;-64
2023/04/01 03:29:07;;;;;;;;;;;;;;;;;;1912506;28;7127;-64
2023/04/01 03:30:06;;;;;;;;;;;;;;;;;;1912653;28;8019;-64
2023/04/01 03:31:04;;;;;;;;;;;;;;;;;;1912801;28;7065;-64
2023/04/01 03:32:02;;;;;;;;;;;;;;;;;;1912502;28;8014;-63
2023/04/01 03:33:00;;;;;;;;;;;;;;;;;;1912925;28;7010;-64
2023/04/01 03:33:58;;;;;;;;;;;;;;;;;;1912746;28;7130;-63
2023/04/01 03:34:55;;;;;;;;;;;;;;;;;;1913135;28;7096;-63
2023/04/01 03:35:52;;;;;;;;;;;;;;;;;;1913248;28;7120;-64
2023/04/01 03:36:50;;;;;;;;;;;;;;;;;;1913215;28;7009;-65
2023/04/01 03:37:50;;;;;;;;;;;;;;;;;;1912877;28;7100;-63
2023/04/01 03:38:47;;;;;;;;;;;;;;;;;;1912637;28;7009;-65
2023/04/01 03:39:45;;;;;;;;;;;;;;;;;;1912679;28;7092;-64
2023/04/01 03:40:43;;;;;;;;;;;;;;;;;;1912902;28;7074;-64
2023/04/01 03:41:40;;;;;;;;;;;;;;;;;;1912283;28;8104;-65
2023/04/01 03:42:38;;;;;;;;;;;;;;;;;;1913195;28;7005;-63
2023/04/01 03:43:35;;;;;;;;;;;;;;;;;;1916357;28;7128;-64
2023/04/01 03:44:33;;;;;;;;;;;;;;;;;;1913686;28;7161;-63
2023/04/01 03:45:30;;;;;;;;;;;;;;;;;;1913436;28;7057;-64
2023/04/01 03:46:28;;;;;;;;;;;;;;;;;;1911986;28;7002;-64
2023/04/01 03:47:26;;;;;;;;;;;;;;;;;;1912377;28;7142;-63
2023/04/01 03:48:23;;;;;;;;;;;;;;;;;;1912959;28;7315;-63
2023/04/01 03:49:20;;;;;;;;;;;;;;;;;;1913373;28;7009;-64
2023/04/01 03:50:19;;;;;;;;;;;;;;;;;;1912640;28;7009;-64
2023/04/01 03:51:17;;;;;;;;;;;;;;;;;;1913055;28;8162;-63
2023/04/01 03:52:14;;;;;;;;;;;;;;;;;;1912101;28;7009;-65
2023/04/01 03:53:12;;;;;;;;;;;;;;;;;;1913366;28;7148;-63
2023/04/01 03:54:10;;;;;;;;;;;;;;;;;;1913070;28;7021;-65
2023/04/01 03:55:08;;;;;;;;;;;;;;;;;;1911769;28;7164;-64
2023/04/01 03:56:06;;;;;;;;;;;;;;;;;;1913187;28;8110;-64
2023/04/01 03:57:04;;;;;;;;;;;;;;;;;;1913301;28;7025;-65
2023/04/01 03:58:02;;;;;;;;;;;;;;;;;;1913093;28;7144;-64
2023/04/01 03:59:03;;;;;;;;;;;;;;;;;;1911632;28;7009;-64
2023/04/01 04:00:00;;;;;;;;;;;;;;;;;;1911693;28;7017;-65
2023/04/01 04:00:57;;;;;;;;;;;;;;;;;;1913376;28;8567;-63
2023/04/01 04:01:55;;;;;;;;;;;;;;;;;;1913216;28;7006;-64
2023/04/01 04:02:52;;;;;;;;;;;;;;;;;;1913329;28;7014;-65
2023/04/01 04:03:50;;;;;;;;;;;;;;;;;;1913376;28;7002;-64
2023/04/01 04:04:48;;;;;;;;;;;;;;;;;;1911832;28;8109;-64
2023/04/01 04:05:47;;;;;;;;;;;;;;;;;;1912210;28;7009;-64
2023/04/01 04:06:44;;;;;;;;;;;;;;;;;;1913334;28;7009;-64
2023/04/01 04:07:41;;;;;;;;;;;;;;;;;;1913409;28;8037;-64
2023/04/01 04:08:39;;;;;;;;;;;;;;;;;;1912499;28;7104;-64
2023/04/01 04:09:36;;;;;;;;;;;;;;;;;;1912797;28;7005;-64
2023/04/01 04:10:34;;;;;;;;;;;;;;;;;;1913214;28;7045;-63
2023/04/01 04:11:32;;;;;;;;;;;;;;;;;;1911909;28;7168;-65
2023/04/01 04:12:30;;;;;;;;;;;;;;;;;;1912823;28;8073;-64
2023/04/01 04:13:27;;;;;;;;;;;;;;;;;;1913129;28;7010;-64
2023/04/01 04:14:25;;;;;;;;;;;;;;;;;;1911807;28;7327;-64
2023/04/01 04:15:22;;;;;;;;;;;;;;;;;;1913130;28;7038;-63
2023/04/01 04:16:19;;;;;;;;;;;;;;;;;;1913529;28;7295;-63
2023/04/01 04:17:17;;;;;;;;;;;;;;;;;;1913895;28;7033;-65
2023/04/01 04:18:14;;;;;;;;;;;;;;;;;;1912291;28;7100;-65
2023/04/01 04:19:12;;;;;;;;;;;;;;;;;;1911365;28;7061;-63
2023/04/01 04:20:10;;;;;;;;;;;;;;;;;;1911380;28;7215;-64
2023/04/01 04:21:11;;;;;;;;;;;;;;;;;;1913299;28;7344;-62
2023/04/01 04:22:08;;;;;;;;;;;;;;;;;;1912705;28;7009;-63
2023/04/01 04:23:05;;;;;;;;;;;;;;;;;;1912975;28;8038;-64
2023/04/01 04:24:03;;;;;;;;;;;;;;;;;;1913201;28;7145;-64
2023/04/01 04:25:00;;;;;;;;;;;;;;;;;;1913101;28;7009;-63
2023/04/01 04:25:59;;;;;;;;;;;;;;;;;;1912961;28;7096;-65
2023/04/01 04:26:57;;;;;;;;;;;;;;;;;;1912871;28;7045;-64
2023/04/01 04:27:54;;;;;;;;;;;;;;;;;;1912791;28;7009;-65
2023/04/01 04:28:53;;;;;;;;;;;;;;;;;;1913022;28;7028;-64
2023/04/01 04:29:51;;;;;;;;;;;;;;;;;;1911447;28;7372;-65
2023/04/01 04:30:48;;;;;;;;;;;;;;;;;;1913203;28;7133;-64
2023/04/01 04:31:45;;;;;;;;;;;;;;;;;;1912990;28;7005;-63
2023/04/01 04:32:43;;;;;;;;;;;;;;;;;;1912721;28;7155;-65
2023/04/01 04:33:40;;;;;;;;;;;;;;;;;;1912446;28;7097;-64
2023/04/01 04:34:38;;;;;;;;;;;;;;;;;;1913039;28;7009;-63
2023/04/01 04:35:35;;;;;;;;;;;;;;;;;;1911874;28;7050;-65
2023/04/01 04:36:32;;;;;;;;;;;;;;;;;;1912066;28;7675;-65
2023/04/01 04:37:30;;;;;;;;;;;;;;;;;;1912893;28;7313;-64
2023/04/01 04:38:27;;;;;;;;;;;;;;;;;;1913192;28;7131;-64
2023/04/01 04:39:25;;;;;;;;;;;;;;;;;;1912665;28;7049;-64
2023/04/01 04:40:22;;;;;;;;;;;;;;;;;;1912463;28;7141;-62
2023/04/01 04:41:21;;;;;;;;;;;;;;;;;;1912768;28;8002;-63
2023/04/01 04:42:18;;;;;;;;;;;;;;;;;;1912353;28;7181;-65
2023/04/01 04:43:17;;;;;;;;;;;;;;;;;;1912750;28;7319;-63
2023/04/01 04:44:14;;;;;;;;;;;;;;;;;;1912566;28;8195;-64
2023/04/01 04:45:12;;;;;;;;;;;;;;;;;;1913179;28;7005;-64
2023/04/01 04:46:10;;;;;;;;;;;;;;;;;;1912398;28;7088;-64
2023/04/01 04:47:07;;;;;;;;;;;;;;;;;;1912985;28;7009;-65
2023/04/01 04:48:06;;;;;;;;;;;;;;;;;;1912567;28;7009;-63
2023/04/01 04:49:03;;;;;;;;;;;;;;;;;;1912507;28;7156;-63
2023/04/01 04:50:01;;;;;;;;;;;;;;;;;;1912428;28;7165;-63
2023/04/01 04:50:58;;;;;;;;;;;;;;;;;;1912892;28;8046;-63
2023/04/01 04:51:55;;;;;;;;;;;;;;;;;;1913406;28;7092;-63
2023/04/01 04:52:53;;;;;;;;;;;;;;;;;;1912810;28;7005;-64
2023/04/01 04:53:50;;;;;;;;;;;;;;;;;;1912825;28;7102;-63
2023/04/01 04:54:49;;;;;;;;;;;;;;;;;;1912905;28;7013;-64
2023/04/01 04:55:48;;;;;;;;;;;;;;;;;;1911225;28;7013;-64
2023/04/01 04:56:45;;;;;;;;;;;;;;;;;;1911358;28;7214;-65
2023/04/01 04:57:43;;;;;;;;;;;;;;;;;;1912459;28;7029;-64
2023/04/01 04:58:40;;;;;;;;;;;;;;;;;;1912929;28;7057;-63
2023/04/01 04:59:38;;;;;;;;;;;;;;;;;;1913139;28;7124;-63
2023/04/01 05:00:35;;;;;;;;;;;;;;;;;;1919343;28;7088;-63
2023/04/01 05:01:33;;;;;;;;;;;;;;;;;;1919336;28;7005;-63
2023/04/01 05:02:30;;;;;;;;;;;;;;;;;;1912905;28;8099;-65
2023/04/01 05:03:28;;;;;;;;;;;;;;;;;;1912399;28;7092;-64
2023/04/01 05:04:25;;;;;;;;;;;;;;;;;;1912625;28;8103;-64
2023/04/01 05:05:23;;;;;;;;;;;;;;;;;;1912944;28;7017;-64
2023/04/01 05:06:20;;;;;;;;;;;;;;;;;;1912829;28;7096;-64
2023/04/01 05:07:19;;;;;;;;;;;;;;;;;;1912339;28;7109;-63
2023/04/01 05:08:17;;;;;;;;;;;;;;;;;;1912535;28;7144;-63
2023/04/01 05:09:14;;;;;;;;;;;;;;;;;;1912564;28;7973;-64
2023/04/01 05:10:12;;;;;;;;;;;;;;;;;;1912646;28;7247;-62
2023/04/01 05:11:12;;;;;;;;;;;;;;;;;;1912707;28;7005;-64
2023/04/01 05:12:12;;;;;;;;;;;;;;;;;;1912294;28;7046;-64
2023/04/01 05:13:10;;;;;;;;;;;;;;;;;;1912703;28;7588;-64
2023/04/01 05:14:11;;;;;;;;;;;;;;;;;;1912350;28;7017;-64
2023/04/01 05:15:09;;;;;;;;;;;;;;;;;;1912149;28;7344;-64
2023/04/01 05:16:10;;;;;;;;;;;;;;;;;;1912363;28;7315;-63
2023/04/01 05:17:10;;;;;;;;;;;;;;;;;;1911632;28;7091;-63
2023/04/01 05:18:07;;;;;;;;;;;;;;;;;;1912619;28;7140;-63
2023/04/01 05:19:05;;;;;;;;;;;;;;;;;;1912065;28;7914;-63
2023/04/01 05:20:03;;;;;;;;;;;;;;;;;;1912357;28;8168;-65
2023/04/01 05:21:00;;;;;;;;;;;;;;;;;;1912439;28;7013;-63
2023/04/01 05:21:57;;;;;;;;;;;;;;;;;;1912817;28;7005;-63
2023/04/01 05:22:59;;;;;;;;;;;;;;;;;;1912402;28;7112;-64
2023/04/01 05:23:56;;;;;;;;;;;;;;;;;;1912266;28;7109;-63
2023/04/01 05:24:53;;;;;;;;;;;;;;;;;;1912876;28;7148;-64
2023/04/01 05:25:52;;;;;;;;;;;;;;;;;;1911853;28;7041;-65
2023/04/01 05:26:49;;;;;;;;;;;;;;;;;;1912306;28;7332;-64
2023/04/01 05:27:47;;;;;;;;;;;;;;;;;;1912048;28;7026;-63
2023/04/01 05:28:44;;;;;;;;;;;;;;;;;;1912623;28;7001;-64
2023/04/01 05:29:42;;;;;;;;;;;;;;;;;;1911929;28;7005;-65
2023/04/01 05:30:41;;;;;;;;;;;;;;;;;;1912619;28;7089;-64
2023/04/01 05:31:38;;;;;;;;;;;;;;;;;;1911983;28;7116;-64
2023/04/01 05:32:35;;;;;;;;;;;;;;;;;;1912305;28;8335;-63
2023/04/01 05:33:33;;;;;;;;;;;;;;;;;;1912238;28;7120;-63
2023/04/01 05:34:30;;;;;;;;;;;;;;;;;;1912364;28;7092;-63
2023/04/01 05:35:28;;;;;;;;;;;;;;;;;;1912734;28;8099;-63
2023/04/01 05:36:25;;;;;;;;;;;;;;;;;;1912501;28;7013;-64
2023/04/01 05:37:23;;;;;;;;;;;;;;;;;;1912233;28;8055;-63
2023/04/01 05:38:20;;;;;;;;;;;;;;;;;;1912004;28;7152;-63
2023/04/01 05:39:18;;;;;;;;;;;;;;;;;;1912727;28;7017;-64
2023/04/01 05:40:15;;;;;;;;;;;;;;;;;;1911989;28;7388;-64
2023/04/01 05:41:14;;;;;;;;;;;;;;;;;;1911926;28;7962;-64
2023/04/01 05:42:12;;;;;;;;;;;;;;;;;;1912968;28;7010;-64
2023/04/01 05:43:09;;;;;;;;;;;;;;;;;;1911596;28;7177;-64
2023/04/01 05:44:06;;;;;;;;;;;;;;;;;;1912156;28;8350;-63
2023/04/01 05:45:04;;;;;;;;;;;;;;;;;;1911115;28;7096;-63
2023/04/01 05:46:02;;;;;;;;;;;;;;;;;;1912334;28;7045;-64
2023/04/01 05:46:59;;;;;;;;;;;;;;;;;;1912103;28;7384;-65
2023/04/01 05:47:57;;;;;;;;;;;;;;;;;;1912638;28;7042;-63
2023/04/01 05:48:54;;;;;;;;;;;;;;;;;;1912544;28;7009;-63
2023/04/01 05:49:52;;;;;;;;;;;;;;;;;;1912393;28;7124;-64
2023/04/01 05:50:49;;;;;;;;;;;;;;;;;;1912065;28;7092;-64
2023/04/01 05:51:46;;;;;;;;;;;;;;;;;;1912232;28;7092;-64
2023/04/01 05:52:44;;;;;;;;;;;;;;;;;;1912050;28;7127;-64
2023/04/01 05:53:42;;;;;;;;;;;;;;;;;;1912813;28;7995;-63
2023/04/01 05:54:39;;;;;;;;;;;;;;;;;;1911943;28;7114;-65
2023/04/01 05:55:36;;;;;;;;;;;;;;;;;;1912559;28;7108;-63
2023/04/01 05:56:34;;;;;;;;;;;;;;;;;;1912231;28;7009;-64
2023/04/01 05:57:31;;;;;;;;;;;;;;;;;;1911963;28;7010;-65
2023/04/01 05:58:29;;;;;;;;;;;;;;;;;;1912055;28;7029;-64
2023/04/01 05:59:26;;;;;;;;;;;;;;;;;;1911775;28;7054;-64
2023/04/01 06:00:24;;;;;;;;;;;;;;;;;;1912445;28;9066;-64
2023/04/01 06:01:21;;;;;;;;;;;;;;;;;;1912159;28;7076;-65
2023/04/01 06:02:19;;;;;;;;;;;;;;;;;;1912435;28;8355;-63
2023/04/01 06:03:16;;;;;;;;;;;;;;;;;;1912554;28;9106;-64
2023/04/01 06:04:15;;;;;;;;;;;;;;;;;;1910952;28;7025;-64
2023/04/01 06:05:16;;;;;;;;;;;;;;;;;;1911817;28;7046;-65
2023/04/01 06:06:16;;;;;;;;;;;;;;;;;;1912713;28;7105;-63
2023/04/01 06:07:14;;;;;;;;;;;;;;;;;;1912021;28;7036;-64
2023/04/01 06:08:14;;;;;;;;;;;;;;;;;;1911872;28;7009;-64
2023/04/01 06:09:23;;;;;;;;;;;;;;;;;;1912464;28;7531;-64
2023/04/01 06:10:24;;;;;;;;;;;;;;;;;;1912127;28;7088;-65
2023/04/01 06:11:38;;;;;;;;;;;;;;;;;;1911894;28;7846;-64
2023/04/01 06:12:57;;;;;;;;;;;;;;;;;;1912171;28;7036;-65
2023/04/01 06:14:00;;;;;;;;;;;;;;;;;;1911389;28;8010;-64
2023/04/01 06:15:06;;;;;;;;;;;;;;;;;;1911967;28;7005;-64
2023/04/01 06:16:07;;;;;;;;;;;;;;;;;;1911399;28;8142;-64
2023/04/01 06:17:04;;;;;;;;;;;;;;;;;;1910927;28;7145;-64
2023/04/01 06:18:06;;;;;;;;;;;;;;;;;;1911236;28;7037;-65
2023/04/01 06:19:16;;;;;;;;;;;;;;;;;;1918613;28;8011;-64
2023/04/01 06:20:32;;;;;;;;;;;;;;;;;;1912088;28;7009;-65
2023/04/01 06:21:29;;;;;;;;;;;;;;;;;;1912118;28;7033;-64
2023/04/01 06:22:45;;;;;;;;;;;;;;;;;;1912764;28;7100;-63
2023/04/01 06:23:45;;;;;;;;;;;;;;;;;;1911709;28;7042;-63
2023/04/01 06:24:58;;;;;;;;;;;;;;;;;;1912244;28;7005;-64
2023/04/01 06:26:04;;;;;;;;;;;;;;;;;;1912409;28;7996;-64
2023/04/01 06:27:20;;;;;;;;;;;;;;;;;;1912342;28;9001;-64
2023/04/01 06:28:23;;;;;;;;;;;;;;;;;;1911307;28;7147;-64
2023/04/01 06:29:32;;;;;;;;;;;;;;;;;;1912245;28;7100;-65
2023/04/01 06:30:39;;;;;;;;;;;;;;;;;;1912109;28;7385;-64
2023/04/01 06:31:55;;;;;;;;;;;;;;;;;;1912022;28;7009;-63
2023/04/01 06:32:59;;;;;;;;;;;;;;;;;;1912258;28;7017;-64
2023/04/01 06:33:56;;;;;;;;;;;;;;;;;;1911829;28;7029;-64
2023/04/01 06:35:02;;;;;;;;;;;;;;;;;;1911827;28;8039;-63
2023/04/01 06:36:18;;;;;;;;;;;;;;;;;;1911545;28;8317;-63
2023/04/01 06:37:30;;;;;;;;;;;;;;;;;;1911365;28;7320;-64
2023/04/01 06:38:27;;;;;;;;;;;;;;;;;;1911986;28;8146;-64
2023/04/01 06:39:43;;;;;;;;;;;;;;;;;;1911334;28;7097;-63
2023/04/01 06:40:43;;;;;;;;;;;;;;;;;;1912032;28;7135;-64
2023/04/01 06:41:43;;;;;;;;;;;;;;;;;;1911177;28;7117;-64
2023/04/01 06:42:43;;;;;;;;;;;;;;;;;;1911720;28;7344;-64
2023/04/01 06:43:43;;;;;;;;;;;;;;;;;;1911995;28;7010;-64
2023/04/01 06:45:04;;;;;;;;;;;;;;;;;;1911701;28;8176;-65
2023/04/01 06:46:10;;;;;;;;;;;;;;;;;;1911749;28;7009;-63
2023/04/01 06:47:08;;;;;;;;;;;;;;;;;;1911950;28;7088;-64
2023/04/01 06:48:28;;;;;;;;;;;;;;;;;;1912073;28;7021;-64
2023/04/01 06:49:55;;;;;;;;;;;;;;;;;;1911931;28;7041;-64
2023/04/01 06:50:52;;;;;;;;;;;;;;;;;;1911730;28;7001;-64
2023/04/01 06:52:01;;;;;;;;;;;;;;;;;;1911612;28;7359;-65
2023/04/01 06:53:17;;;;;;;;;;;;;;;;;;1911927;28;7033;-64
2023/04/01 06:54:19;;;;;;;;;;;;;;;;;;1912048;28;7998;-64
2023/04/01 06:55:24;;;;;;;;;;;;;;;;;;1912294;28;7032;-64
2023/04/01 06:56:26;;;;;;;;;;;;;;;;;;1912289;28;7261;-63
2023/04/01 06:57:30;;;;;;;;;;;;;;;;;;1911884;28;7144;-65
2023/04/01 06:58:28;;;;;;;;;;;;;;;;;;1910806;28;7042;-64